createdAt,value
2022-12-28T00:01:19.516Z,4.47
2022-12-28T00:03:46.274Z,4.68
2022-12-28T00:06:13.272Z,4.20
2022-12-28T00:08:40.775Z,4.10
2022-12-28T00:11:12.264Z,4.57
2022-12-28T00:13:45.578Z,4.25
2022-12-28T00:16:27.367Z,4.00
2022-12-28T00:18:55.487Z,4.00
2022-12-28T00:21:22.274Z,4.18
2022-12-28T00:23:52.874Z,3.80
2022-12-28T00:26:19.831Z,3.92
2022-12-28T00:28:47.074Z,4.93
2022-12-28T00:31:14.106Z,4.15
2022-12-28T00:33:41.059Z,4.00
2022-12-28T00:36:08.054Z,3.85
2022-12-28T00:38:35.292Z,4.50
2022-12-28T00:41:02.006Z,4.45
2022-12-28T00:43:28.937Z,4.93
2022-12-28T00:45:55.719Z,5.05
2022-12-28T00:48:22.495Z,3.60
2022-12-28T00:50:49.250Z,3.40
2022-12-28T00:53:16.017Z,3.40
2022-12-28T00:55:42.735Z,3.42
2022-12-28T00:58:09.598Z,4.22
2022-12-28T01:00:36.828Z,3.88
2022-12-28T01:03:03.818Z,3.55
2022-12-28T01:05:30.760Z,7.43
2022-12-28T01:07:57.479Z,5.70
2022-12-28T01:10:24.200Z,4.22
2022-12-28T01:12:50.909Z,4.22
2022-12-28T01:15:17.668Z,5.10
2022-12-28T01:17:44.484Z,3.65
2022-12-28T01:20:11.464Z,3.40
2022-12-28T01:22:38.208Z,3.42
2022-12-28T01:25:05.253Z,4.20
2022-12-28T01:27:32.578Z,3.55
2022-12-28T01:29:59.284Z,3.20
2022-12-28T01:32:25.988Z,3.85
2022-12-28T01:34:52.682Z,3.90
2022-12-28T01:37:19.415Z,4.00
2022-12-28T01:39:46.136Z,3.17
2022-12-28T01:42:17.265Z,3.58
2022-12-28T01:44:46.056Z,3.05
2022-12-28T01:47:15.057Z,3.00
2022-12-28T01:50:02.704Z,3.40
2022-12-28T01:52:41.515Z,2.88
2022-12-28T01:55:29.959Z,2.22
2022-12-28T01:58:05.709Z,2.70
2022-12-28T02:00:32.432Z,2.50
2022-12-28T02:03:04.882Z,3.00
2022-12-28T02:05:33.940Z,2.33
2022-12-28T02:08:28.622Z,2.60
2022-12-28T02:10:55.403Z,2.33
2022-12-28T02:13:22.933Z,2.13
2022-12-28T02:15:49.761Z,2.70
2022-12-28T02:18:17.063Z,2.42
2022-12-28T02:21:04.808Z,2.72
2022-12-28T02:24:00.458Z,2.83
2022-12-28T02:26:51.579Z,3.20
2022-12-28T02:29:40.636Z,2.90
2022-12-28T02:32:45.404Z,2.92
2022-12-28T02:35:30.688Z,2.63
2022-12-28T02:38:06.587Z,2.72
2022-12-28T02:40:37.822Z,2.40
2022-12-28T02:43:04.575Z,2.40
2022-12-28T02:46:05.582Z,2.13
2022-12-28T02:49:01.602Z,2.30
2022-12-28T02:51:46.919Z,2.20
2022-12-28T02:54:36.368Z,1.98
2022-12-28T02:57:11.712Z,2.35
2022-12-28T02:59:45.056Z,1.90
2022-12-28T03:02:27.041Z,2.00
2022-12-28T03:05:18.992Z,2.47
2022-12-28T03:08:20.209Z,2.30
2022-12-28T03:11:00.244Z,2.10
2022-12-28T03:13:45.077Z,2.20
2022-12-28T03:16:22.248Z,1.90
2022-12-28T03:19:21.238Z,2.08
2022-12-28T03:22:06.664Z,1.73
2022-12-28T03:24:52.347Z,2.00
2022-12-28T03:27:37.411Z,2.25
2022-12-28T03:30:25.367Z,1.92
2022-12-28T03:32:52.042Z,1.85
2022-12-28T03:35:19.544Z,2.10
2022-12-28T03:38:06.535Z,2.38
2022-12-28T03:40:49.712Z,2.17
2022-12-28T03:43:39.556Z,2.53
2022-12-28T03:46:09.155Z,2.22
2022-12-28T03:48:37.524Z,2.30
2022-12-28T03:51:04.409Z,2.53
2022-12-28T03:53:45.174Z,2.92
2022-12-28T03:56:16.716Z,2.50
2022-12-28T03:58:43.609Z,2.70
2022-12-28T04:01:10.624Z,2.15
2022-12-28T04:03:37.497Z,2.30
2022-12-28T04:06:04.469Z,2.30
2022-12-28T04:08:31.895Z,2.25
2022-12-28T04:10:59.476Z,2.40
2022-12-28T04:13:29.638Z,2.80
2022-12-28T04:16:01.194Z,3.13
2022-12-28T04:18:27.979Z,2.95
2022-12-28T04:20:54.671Z,2.40
2022-12-28T04:23:21.436Z,2.50
2022-12-28T04:26:05.099Z,2.60
2022-12-28T04:28:32.162Z,3.28
2022-12-28T04:30:59.256Z,2.70
2022-12-28T04:33:26.166Z,3.00
2022-12-28T04:35:53.114Z,3.53
2022-12-28T04:38:20.288Z,3.03
2022-12-28T04:40:47.177Z,2.80
2022-12-28T04:43:13.873Z,3.00
2022-12-28T04:45:40.610Z,2.92
2022-12-28T04:48:07.339Z,3.10
2022-12-28T04:50:34.025Z,3.33
2022-12-28T04:53:00.738Z,4.88
2022-12-28T04:55:31.984Z,3.25
2022-12-28T04:58:00.764Z,3.15
2022-12-28T05:00:27.651Z,2.65
2022-12-28T05:02:54.495Z,3.53
2022-12-28T05:05:21.294Z,3.78
2022-12-28T05:07:48.071Z,4.35
2022-12-28T05:10:14.935Z,3.55
2022-12-28T05:12:41.712Z,3.33
2022-12-28T05:15:08.759Z,3.47
2022-12-28T05:17:35.577Z,3.38
2022-12-28T05:20:03.164Z,4.03
2022-12-28T05:22:29.900Z,3.78
2022-12-28T05:24:56.717Z,3.60
2022-12-28T05:27:23.469Z,3.53
2022-12-28T05:29:50.218Z,3.85
2022-12-28T05:32:16.889Z,4.25
2022-12-28T05:34:43.611Z,3.60
2022-12-28T05:37:11.972Z,4.53
2022-12-28T05:39:41.166Z,3.67
2022-12-28T05:42:07.895Z,4.25
2022-12-28T05:44:34.660Z,4.00
2022-12-28T05:47:01.516Z,3.90
2022-12-28T05:49:28.325Z,3.45
2022-12-28T05:51:55.045Z,4.30
2022-12-28T05:54:21.766Z,3.83
2022-12-28T05:56:50.841Z,4.32
2022-12-28T05:59:17.588Z,3.67
2022-12-28T06:01:44.574Z,3.85
2022-12-28T06:04:17.918Z,3.50
2022-12-28T06:06:45.765Z,3.70
2022-12-28T06:09:12.795Z,4.95
2022-12-28T06:11:39.666Z,4.57
2022-12-28T06:14:06.459Z,3.80
2022-12-28T06:16:36.912Z,3.90
2022-12-28T06:19:05.499Z,4.60
2022-12-28T06:21:33.049Z,4.38
2022-12-28T06:24:00.217Z,4.10
2022-12-28T06:26:29.091Z,4.00
2022-12-28T06:28:56.055Z,4.10
2022-12-28T06:31:24.515Z,4.57
2022-12-28T06:33:56.188Z,4.00
2022-12-28T06:36:36.759Z,4.10
2022-12-28T06:39:04.962Z,4.20
2022-12-28T06:41:31.742Z,4.18
2022-12-28T06:43:58.795Z,3.15
2022-12-28T06:46:27.458Z,4.88
2022-12-28T06:48:54.230Z,3.80
2022-12-28T06:51:23.301Z,4.10
2022-12-28T06:53:50.575Z,4.30
2022-12-28T06:56:25.475Z,4.45
2022-12-28T06:58:55.712Z,5.45
2022-12-28T07:01:31.261Z,4.93
2022-12-28T07:04:02.382Z,5.10
2022-12-28T07:06:36.154Z,4.95
2022-12-28T07:09:04.345Z,5.40
2022-12-28T07:11:31.129Z,4.03
2022-12-28T07:13:57.989Z,6.00
2022-12-28T07:16:25.384Z,5.28
2022-12-28T07:18:52.538Z,5.30
2022-12-28T07:21:21.538Z,4.38
2022-12-28T07:23:49.158Z,5.30
2022-12-28T07:26:17.750Z,4.63
2022-12-28T07:28:45.403Z,4.97
2022-12-28T07:31:22.830Z,6.03
2022-12-28T07:33:50.502Z,5.28
2022-12-28T07:36:18.220Z,4.55
2022-12-28T07:38:45.097Z,4.60
2022-12-28T07:41:15.965Z,5.55
2022-12-28T07:43:42.760Z,5.93
2022-12-28T07:46:14.186Z,5.43
2022-12-28T07:48:41.273Z,5.80
2022-12-28T07:51:15.005Z,5.43
2022-12-28T07:53:42.525Z,6.28
2022-12-28T07:56:09.395Z,5.93
2022-12-28T07:58:36.276Z,6.97
2022-12-28T08:01:13.849Z,7.45
2022-12-28T08:03:40.965Z,7.68
2022-12-28T08:06:34.651Z,6.35
2022-12-28T08:09:01.703Z,6.78
2022-12-28T08:11:30.175Z,5.97
2022-12-28T08:13:57.103Z,5.25
2022-12-28T08:16:25.104Z,6.30
2022-12-28T08:18:51.865Z,5.30
2022-12-28T08:21:21.092Z,6.00
2022-12-28T08:23:48.109Z,6.85
2022-12-28T08:26:15.780Z,7.55
2022-12-28T08:28:43.219Z,6.38
2022-12-28T08:31:12.270Z,5.93
2022-12-28T08:33:39.120Z,6.45
2022-12-28T08:36:06.426Z,4.90
2022-12-28T08:38:33.304Z,6.65
2022-12-28T08:41:01.489Z,5.55
2022-12-28T08:43:28.575Z,6.25
2022-12-28T08:46:02.221Z,7.18
2022-12-28T08:48:29.439Z,9.07
2022-12-28T08:50:58.314Z,8.15
2022-12-28T08:53:25.113Z,8.75
2022-12-28T08:55:51.884Z,6.97
2022-12-28T08:58:18.954Z,8.45
2022-12-28T09:00:45.745Z,8.43
2022-12-28T09:03:12.603Z,8.18
2022-12-28T09:05:40.053Z,11.25
2022-12-28T09:08:06.816Z,9.80
2022-12-28T09:10:33.517Z,9.73
2022-12-28T09:13:00.352Z,9.63
2022-12-28T09:15:27.072Z,9.25
2022-12-28T09:17:53.831Z,11.07
2022-12-28T09:20:20.568Z,10.38
2022-12-28T09:22:47.280Z,10.75
2022-12-28T09:25:14.038Z,10.18
2022-12-28T09:27:41.229Z,10.35
2022-12-28T09:30:09.943Z,9.60
2022-12-28T09:32:36.714Z,10.23
2022-12-28T09:35:03.638Z,10.50
2022-12-28T09:37:30.359Z,10.32
2022-12-28T09:40:01.389Z,13.18
2022-12-28T09:42:28.983Z,13.63
2022-12-28T09:45:11.251Z,14.50
2022-12-28T09:47:38.793Z,12.50
2022-12-28T09:50:24.850Z,12.38
2022-12-28T09:53:20.315Z,12.55
2022-12-28T09:55:53.107Z,12.77
2022-12-28T09:58:19.889Z,12.32
2022-12-28T10:00:57.206Z,12.65
2022-12-28T10:03:35.973Z,12.35
2022-12-28T10:06:02.750Z,12.38
2022-12-28T10:08:29.965Z,12.30
2022-12-28T10:11:00.046Z,12.27
2022-12-28T10:13:53.731Z,10.55
2022-12-28T10:16:19.852Z,12.05
2022-12-28T10:18:47.327Z,12.15
2022-12-28T10:21:15.190Z,10.57
2022-12-28T10:24:04.606Z,11.10
2022-12-28T10:26:28.777Z,11.40
2022-12-28T10:28:58.485Z,11.45
2022-12-28T10:31:38.818Z,11.80
2022-12-28T10:34:17.670Z,12.25
2022-12-28T10:36:44.616Z,12.07
2022-12-28T10:39:39.144Z,11.30
2022-12-28T10:42:06.060Z,10.27
2022-12-28T10:44:41.717Z,12.65
2022-12-28T10:47:44.197Z,12.00
2022-12-28T10:50:41.951Z,11.73
2022-12-28T10:53:37.062Z,11.85
2022-12-28T10:56:05.257Z,11.52
2022-12-28T11:01:27.844Z,11.23
2022-12-28T11:03:22.200Z,10.25
2022-12-28T11:04:20.057Z,10.65
2022-12-28T11:07:02.820Z,10.55
2022-12-28T11:09:35.289Z,11.52
2022-12-28T11:12:24.992Z,11.93
2022-12-28T11:14:52.504Z,12.10
2022-12-28T11:17:26.552Z,11.73
2022-12-28T11:20:07.208Z,11.43
2022-12-28T11:22:33.955Z,11.88
2022-12-28T11:25:01.013Z,12.05
2022-12-28T11:27:27.832Z,12.30
2022-12-28T11:29:55.033Z,12.80
2022-12-28T11:32:27.466Z,11.60
2022-12-28T11:34:54.986Z,11.68
2022-12-28T11:37:21.831Z,13.23
2022-12-28T11:39:49.540Z,12.57
2022-12-28T11:42:52.626Z,13.02
2022-12-28T11:45:52.098Z,11.43
2022-12-28T11:48:38.256Z,11.23
2022-12-28T11:51:05.498Z,10.70
2022-12-28T11:53:35.241Z,11.65
2022-12-28T11:56:30.953Z,12.70
2022-12-28T11:59:03.624Z,14.85
2022-12-28T12:01:38.556Z,15.32
2022-12-28T12:04:05.286Z,12.73
2022-12-28T12:06:44.219Z,13.07
2022-12-28T12:09:25.800Z,14.18
2022-12-28T12:11:53.263Z,14.90
2022-12-28T12:14:28.598Z,15.05
2022-12-28T12:17:03.360Z,14.07
2022-12-28T12:19:32.123Z,14.15
2022-12-28T12:22:09.481Z,12.70
2022-12-28T12:24:41.229Z,13.45
2022-12-28T12:27:16.319Z,14.57
2022-12-28T12:29:49.312Z,13.35
2022-12-28T12:32:18.535Z,13.45
2022-12-28T12:35:00.250Z,13.32
2022-12-28T12:37:37.422Z,11.82
2022-12-28T12:40:09.993Z,11.95
2022-12-28T12:42:36.769Z,12.23
2022-12-28T12:45:35.887Z,13.63
2022-12-28T12:48:21.372Z,13.00
2022-12-28T12:51:06.664Z,13.40
2022-12-28T12:53:44.745Z,14.07
2022-12-28T12:56:29.608Z,13.48
2022-12-28T12:59:19.945Z,13.45
2022-12-28T13:02:12.591Z,12.75
2022-12-28T13:04:42.672Z,12.90
2022-12-28T13:07:18.125Z,12.52
2022-12-28T13:09:44.832Z,14.73
2022-12-28T13:12:17.987Z,14.20
2022-12-28T13:17:19.123Z,14.20
2022-12-28T13:19:46.318Z,14.85
2022-12-28T13:22:29.685Z,14.68
2022-12-28T13:27:23.247Z,14.65
2022-12-28T13:29:53.636Z,18.73
2022-12-28T13:32:30.398Z,18.08
2022-12-28T13:35:01.138Z,15.85
2022-12-28T13:37:28.117Z,14.10
2022-12-28T13:40:15.989Z,15.35
2022-12-28T13:42:57.776Z,18.05
2022-12-28T13:45:24.489Z,14.63
2022-12-28T13:47:51.448Z,13.27
2022-12-28T13:50:20.683Z,13.73
2022-12-28T13:53:05.016Z,13.85
2022-12-28T13:55:46.302Z,12.73
2022-12-28T13:58:17.151Z,12.55
2022-12-28T14:00:45.975Z,13.30
2022-12-28T14:03:12.706Z,13.73
2022-12-28T14:05:42.551Z,13.55
2022-12-28T14:08:09.306Z,14.48
2022-12-28T14:10:36.039Z,14.55
2022-12-28T14:13:04.701Z,13.73
2022-12-28T14:15:35.850Z,14.60
2022-12-28T14:18:07.521Z,13.40
2022-12-28T14:20:48.838Z,14.32
2022-12-28T14:23:29.912Z,14.48
2022-12-28T14:26:01.587Z,15.00
2022-12-28T14:28:39.820Z,13.43
2022-12-28T14:31:07.396Z,15.27
2022-12-28T14:33:51.062Z,14.07
2022-12-28T14:36:20.699Z,13.15
2022-12-28T14:38:48.696Z,15.85
2022-12-28T14:41:28.484Z,16.73
2022-12-28T14:43:57.025Z,18.75
2022-12-28T14:46:37.539Z,14.75
2022-12-28T14:49:35.227Z,16.80
2022-12-28T14:52:10.703Z,15.45
2022-12-28T14:54:50.103Z,15.57
2022-12-28T14:57:21.529Z,16.38
2022-12-28T14:59:58.099Z,16.05
2022-12-28T15:02:34.253Z,15.68
2022-12-28T15:05:01.872Z,16.13
2022-12-28T15:07:28.625Z,16.63
2022-12-28T15:09:55.409Z,16.35
2022-12-28T15:12:22.894Z,16.38
2022-12-28T15:14:49.979Z,16.83
2022-12-28T15:17:16.804Z,13.60
2022-12-28T15:19:45.227Z,15.85
2022-12-28T15:22:12.670Z,15.30
2022-12-28T15:24:41.407Z,16.13
2022-12-28T15:27:08.212Z,17.92
2022-12-28T15:32:21.883Z,17.42
2022-12-28T15:34:48.601Z,15.77
2022-12-28T15:37:15.323Z,17.20
2022-12-28T15:39:43.227Z,15.85
2022-12-28T15:42:09.932Z,18.65
2022-12-28T15:44:36.682Z,16.92
2022-12-28T15:47:03.488Z,18.50
2022-12-28T15:49:30.219Z,18.38
2022-12-28T15:51:57.045Z,18.65
2022-12-28T15:54:23.782Z,19.30
2022-12-28T15:56:54.225Z,19.70
2022-12-28T15:59:20.966Z,19.10
2022-12-28T16:01:48.319Z,17.60
2022-12-28T16:04:17.303Z,17.13
2022-12-28T16:06:45.187Z,18.75
2022-12-28T16:09:12.654Z,17.80
2022-12-28T16:11:39.405Z,20.25
2022-12-28T16:14:06.869Z,20.67
2022-12-28T16:16:38.269Z,20.45
2022-12-28T16:19:05.494Z,19.10
2022-12-28T16:21:32.361Z,19.52
2022-12-28T16:23:59.883Z,16.98
2022-12-28T16:26:27.227Z,19.33
2022-12-28T16:28:53.966Z,16.63
2022-12-28T16:31:24.446Z,15.52
2022-12-28T16:33:57.802Z,16.20
2022-12-28T16:36:24.895Z,17.23
2022-12-28T16:38:51.675Z,16.33
2022-12-28T16:41:18.533Z,16.38
2022-12-28T16:43:45.975Z,17.63
2022-12-28T16:46:12.877Z,15.07
2022-12-28T16:48:39.599Z,14.98
2022-12-28T16:51:06.561Z,16.25
2022-12-28T16:53:33.803Z,15.68
2022-12-28T16:56:01.301Z,15.77
2022-12-28T16:58:28.878Z,15.70
2022-12-28T17:00:55.869Z,18.98
2022-12-28T17:03:22.746Z,15.90
2022-12-28T17:05:50.376Z,14.80
2022-12-28T17:08:17.203Z,15.60
2022-12-28T17:10:44.044Z,15.45
2022-12-28T17:13:10.924Z,15.65
2022-12-28T17:15:40.867Z,15.82
2022-12-28T17:18:07.811Z,15.40
2022-12-28T17:20:37.856Z,15.05
2022-12-28T17:23:04.687Z,16.42
2022-12-28T17:25:32.297Z,16.73
2022-12-28T17:27:59.268Z,15.13
2022-12-28T17:30:26.611Z,15.55
2022-12-28T17:32:53.428Z,14.85
2022-12-28T17:35:20.195Z,14.27
2022-12-28T17:37:47.104Z,15.30
2022-12-28T17:40:13.820Z,13.82
2022-12-28T17:42:40.525Z,13.18
2022-12-28T17:45:11.648Z,14.95
2022-12-28T17:47:38.662Z,13.85
2022-12-28T17:50:09.078Z,14.90
2022-12-28T17:52:35.888Z,13.32
2022-12-28T17:55:03.577Z,12.20
2022-12-28T17:57:35.354Z,11.70
2022-12-28T18:00:06.578Z,15.57
2022-12-28T18:02:33.580Z,14.73
2022-12-28T18:05:00.484Z,15.63
2022-12-28T18:07:27.659Z,15.10
2022-12-28T18:09:54.397Z,16.13
2022-12-28T18:12:21.281Z,13.52
2022-12-28T18:14:48.021Z,15.90
2022-12-28T18:17:17.585Z,15.43
2022-12-28T18:19:44.441Z,14.07
2022-12-28T18:22:11.150Z,15.68
2022-12-28T18:24:37.929Z,16.45
2022-12-28T18:27:04.638Z,17.83
2022-12-28T18:29:31.392Z,16.90
2022-12-28T18:31:58.095Z,17.67
2022-12-28T18:34:25.002Z,17.63
2022-12-28T18:36:51.744Z,18.42
2022-12-28T18:39:18.622Z,17.80
2022-12-28T18:41:45.376Z,17.95
2022-12-28T18:44:12.189Z,17.17
2022-12-28T18:46:39.025Z,18.27
2022-12-28T18:49:05.763Z,17.75
2022-12-28T18:51:32.449Z,17.38
2022-12-28T18:53:59.207Z,15.55
2022-12-28T18:56:26.108Z,18.95
2022-12-28T18:58:54.289Z,18.25
2022-12-28T19:02:04.332Z,16.48
2022-12-28T19:04:10.406Z,17.77
2022-12-28T19:06:37.612Z,16.08
2022-12-28T19:09:04.766Z,23.17
2022-12-28T19:11:31.562Z,19.08
2022-12-28T19:13:58.268Z,18.17
2022-12-28T19:16:31.161Z,17.33
2022-12-28T19:18:59.139Z,18.02
2022-12-28T19:21:27.333Z,18.40
2022-12-28T19:23:56.912Z,17.60
2022-12-28T19:26:24.215Z,15.73
2022-12-28T19:28:51.216Z,18.05
2022-12-28T19:31:18.287Z,19.20
2022-12-28T19:33:45.264Z,19.60
2022-12-28T19:36:12.736Z,19.58
2022-12-28T19:38:39.577Z,20.10
2022-12-28T19:41:08.007Z,19.30
2022-12-28T19:43:34.885Z,17.67
2022-12-28T19:46:05.442Z,18.98
2022-12-28T19:48:32.260Z,17.92
2022-12-28T19:50:59.064Z,18.25
2022-12-28T19:53:26.809Z,17.02
2022-12-28T19:56:03.323Z,18.38
2022-12-28T19:58:31.516Z,19.85
2022-12-28T20:01:07.286Z,17.52
2022-12-28T20:03:36.937Z,17.75
2022-12-28T20:06:07.066Z,17.58
2022-12-28T20:08:34.043Z,19.15
2022-12-28T20:11:01.711Z,17.40
2022-12-28T20:13:28.620Z,16.42
2022-12-28T20:15:55.390Z,16.90
2022-12-28T20:18:22.256Z,18.13
2022-12-28T20:21:18.000Z,17.05
2022-12-28T20:23:36.308Z,19.02
2022-12-28T20:26:03.105Z,16.63
2022-12-28T20:28:29.919Z,20.30
2022-12-28T20:31:03.474Z,19.48
2022-12-28T20:33:31.194Z,17.70
2022-12-28T20:36:05.699Z,17.88
2022-12-28T20:38:32.581Z,17.65
2022-12-28T20:41:32.489Z,17.63
2022-12-28T20:43:59.788Z,15.88
2022-12-28T20:46:27.094Z,15.70
2022-12-28T20:48:54.183Z,16.40
2022-12-28T20:51:20.920Z,17.17
2022-12-28T20:53:47.687Z,15.90
2022-12-28T20:56:14.423Z,15.77
2022-12-28T20:58:41.153Z,16.70
2022-12-28T21:01:10.634Z,15.52
2022-12-28T21:03:37.693Z,15.02
2022-12-28T21:06:04.837Z,15.35
2022-12-28T21:08:31.978Z,15.52
2022-12-28T21:10:58.811Z,14.20
2022-12-28T21:13:25.780Z,12.85
2022-12-28T21:15:52.688Z,13.30
2022-12-28T21:18:19.897Z,14.82
2022-12-28T21:20:47.752Z,11.98
2022-12-28T21:23:15.205Z,14.95
2022-12-28T21:25:42.325Z,13.73
2022-12-28T21:28:09.448Z,14.52
2022-12-28T21:30:36.335Z,14.20
2022-12-28T21:33:03.208Z,14.57
2022-12-28T21:35:34.064Z,15.43
2022-12-28T21:38:01.709Z,17.63
2022-12-28T21:40:34.546Z,17.10
2022-12-28T21:43:01.232Z,16.55
2022-12-28T21:45:28.098Z,20.85
2022-12-28T21:47:54.927Z,15.75
2022-12-28T21:50:21.710Z,16.63
2022-12-28T21:52:48.657Z,18.00
2022-12-28T21:55:34.233Z,14.25
2022-12-28T21:58:01.124Z,14.75
2022-12-28T22:00:46.227Z,15.15
2022-12-28T22:03:31.426Z,13.77
2022-12-28T22:06:02.703Z,13.93
2022-12-28T22:08:51.461Z,14.27
2022-12-28T22:11:37.507Z,15.02
2022-12-28T22:14:05.192Z,13.77
2022-12-28T22:16:33.302Z,15.90
2022-12-28T22:19:02.579Z,14.10
2022-12-28T22:21:30.134Z,14.52
2022-12-28T22:23:56.872Z,15.52
2022-12-28T22:26:23.604Z,20.80
2022-12-28T22:28:50.319Z,16.17
2022-12-28T22:31:17.135Z,18.40
2022-12-28T22:33:44.070Z,15.18
2022-12-28T22:36:12.614Z,15.32
2022-12-28T22:38:39.362Z,14.77
2022-12-28T22:41:06.267Z,16.02
2022-12-28T22:43:33.147Z,16.55
2022-12-28T22:46:04.016Z,15.80
2022-12-28T22:48:30.921Z,13.45
2022-12-28T22:51:05.166Z,14.70
2022-12-28T22:53:32.663Z,13.60
2022-12-28T22:56:00.275Z,14.43
2022-12-28T22:58:27.276Z,13.98
2022-12-28T23:01:12.945Z,13.48
2022-12-28T23:03:40.721Z,16.08
2022-12-28T23:06:08.436Z,14.77
2022-12-28T23:08:35.196Z,14.05
2022-12-28T23:11:03.926Z,14.32
2022-12-28T23:13:32.863Z,14.73
2022-12-28T23:16:04.363Z,15.23
2022-12-28T23:18:49.933Z,14.77
2022-12-28T23:21:37.292Z,17.25
2022-12-28T23:24:22.848Z,16.52
2022-12-28T23:27:07.950Z,15.93
2022-12-28T23:29:34.688Z,15.13
2022-12-28T23:32:01.467Z,16.00
2022-12-28T23:34:28.172Z,16.08
2022-12-28T23:36:54.914Z,15.82
2022-12-28T23:39:23.456Z,16.27
2022-12-28T23:41:50.914Z,15.98
2022-12-28T23:44:19.014Z,15.93
2022-12-28T23:46:46.145Z,15.45
2022-12-28T23:49:14.080Z,15.40
2022-12-28T23:51:41.366Z,16.08
2022-12-28T23:54:13.743Z,13.80
2022-12-28T23:56:41.099Z,15.35
2022-12-28T23:59:07.906Z,15.25
